Decoded Metar for KRAC (RACINE in WI, USA) (IATA:RAC) | Meteo·Mobile Aviation Weather
aviador You're here:

KRAC Decoded Metar

RACINE in WI, USA
Report Time2019-10-18 12:53:00
UTC Time2019-10-18 13:48:32
Flight Rules vfr VFR
WindCalm
Visibility9999 m
Phenomena:N/A
Clouds:N/A
CeilingNone
Temp03°C (ISA -11)
Dew Point03°C (100% RH)
AAT1.5°C
QNH1019 hPa
Density Alt-728 ft
Elevation666 ft
Report Wrong Elevation
Raw Report
KRAC 181253Z AUTO 00000KT 7SM CLR 03/03 A3009 RMK AO2 SLP194
T00330028=

Extra information for KRAC:More info

Metar Taf Metar & Taf Last 4 Metars F.Rules Stats Wind Profile Meteogram Temp Stats Airport Information Weather charts Add Link Nearby VenuesMetar ALERT Operation Metar Decoded Social comments

AIRNAV info for KRAC